Time;durP1;ratioP1;P1;durP2;ratioP2;P2;SDS_P1;SDS_P2;PMS_P1;PMS_P2;Temp;Humidity;BMP_temperature;BMP_pressure;BME280_temperature;BME280_humidity;BME280_pressure;Samples;Min_cycle;Max_cycle;Signal;HPM_P1;HPM_P2
2023/03/25 00:00:58;;;;;;;9.77;1.77;;;10.10;99.90;;;;;;5075275;28;20089;-93
2023/03/25 00:03:28;;;;;;;6.55;1.40;;;10.10;99.90;;;;;;5075850;28;20234;-91
2023/03/25 00:05:56;;;;;;;8.70;1.83;;;10.00;99.90;;;;;;5091685;28;20052;-93
2023/03/25 00:08:23;;;;;;;8.50;2.00;;;10.00;99.90;;;;;;5092073;28;20119;-91
2023/03/25 00:11:07;;;;;;;7.47;1.52;;;10.00;99.90;;;;;;5074880;28;20481;-92
2023/03/25 00:13:34;;;;;;;9.95;2.67;;;10.00;99.90;;;;;;5092118;28;20044;-91
2023/03/25 00:16:01;;;;;;;8.73;2.00;;;10.00;99.90;;;;;;5074612;28;20032;-92
2023/03/25 00:18:32;;;;;;;6.03;1.92;;;10.00;99.90;;;;;;5074014;28;20043;-92
2023/03/25 00:21:03;;;;;;;8.00;2.20;;;10.00;99.90;;;;;;5074970;28;20493;-92
2023/03/25 00:23:30;;;;;;;7.72;2.60;;;10.00;99.90;;;;;;5074361;28;20028;-92
2023/03/25 00:25:59;;;;;;;7.78;2.22;;;10.00;99.90;;;;;;5075545;28;20044;-92
2023/03/25 00:28:30;;;;;;;8.07;2.58;;;10.00;99.90;;;;;;5074329;28;20153;-91
2023/03/25 00:31:01;;;;;;;8.23;2.85;;;10.00;99.90;;;;;;5075040;28;20090;-91
2023/03/25 00:33:28;;;;;;;9.60;2.60;;;9.90;99.90;;;;;;5074344;28;20071;-91
2023/03/25 00:36:00;;;;;;;10.70;2.67;;;10.00;99.90;;;;;;5090635;28;20089;-91
2023/03/25 00:38:34;;;;;;;8.48;2.88;;;10.00;99.90;;;;;;5073976;28;20047;-91
2023/03/25 00:41:12;;;;;;;8.55;2.28;;;9.90;99.90;;;;;;5090327;28;20115;-92
2023/03/25 00:43:39;;;;;;;10.23;2.88;;;9.90;99.90;;;;;;5074608;28;20043;-92
2023/03/25 00:46:05;;;;;;;9.68;2.60;;;9.90;99.90;;;;;;5073768;28;20044;-91
2023/03/25 00:48:31;;;;;;;8.52;2.92;;;9.90;99.90;;;;;;5074250;28;20044;-92
2023/03/25 00:50:56;;;;;;;9.63;2.65;;;9.90;99.90;;;;;;5074029;28;20032;-92
2023/03/25 00:53:22;;;;;;;10.48;2.92;;;9.90;99.90;;;;;;5073602;28;20032;-91
2023/03/25 00:55:48;;;;;;;8.13;2.95;;;9.80;99.90;;;;;;5090256;28;20115;-92
2023/03/25 00:58:13;;;;;;;9.13;3.00;;;9.80;99.90;;;;;;5090921;28;20036;-91
2023/03/25 01:00:40;;;;;;;8.30;2.88;;;9.80;99.90;;;;;;5074188;28;20043;-91
2023/03/25 01:03:05;;;;;;;7.85;2.58;;;9.80;99.90;;;;;;5074409;28;20090;-91
2023/03/25 01:05:32;;;;;;;8.85;2.60;;;9.80;99.90;;;;;;5091196;28;20401;-92
2023/03/25 01:07:57;;;;;;;9.20;2.38;;;9.80;99.90;;;;;;5090913;28;20039;-92
2023/03/25 01:10:23;;;;;;;8.88;2.35;;;9.80;99.90;;;;;;5074268;28;20048;-92
2023/03/25 01:12:49;;;;;;;6.82;2.55;;;9.80;99.90;;;;;;5074146;28;20028;-92
2023/03/25 01:15:15;;;;;;;5.93;2.05;;;9.80;99.90;;;;;;5073313;28;20101;-92
2023/03/25 01:17:40;;;;;;;8.52;2.17;;;9.80;99.90;;;;;;5073145;28;20298;-90
2023/03/25 01:20:10;;;;;;;7.55;2.03;;;9.80;99.90;;;;;;5072883;28;20063;-92
2023/03/25 01:22:35;;;;;;;7.18;2.60;;;9.80;99.90;;;;;;5073679;28;20032;-92
2023/03/25 01:25:01;;;;;;;11.88;2.55;;;9.80;99.90;;;;;;5090309;28;20044;-92
2023/03/25 01:27:26;;;;;;;7.82;1.98;;;9.80;99.90;;;;;;5090063;28;20067;-92
2023/03/25 01:29:53;;;;;;;10.55;2.42;;;9.70;99.90;;;;;;5074404;28;20043;-91
2023/03/25 01:32:19;;;;;;;8.02;2.30;;;9.70;99.90;;;;;;5089411;28;20044;-92
2023/03/25 01:34:45;;;;;;;7.95;1.90;;;9.70;99.90;;;;;;5074570;28;20093;-92
2023/03/25 01:37:11;;;;;;;6.63;2.10;;;9.70;99.90;;;;;;5071321;28;20058;-91
2023/03/25 01:39:37;;;;;;;8.80;1.98;;;9.70;99.90;;;;;;5073382;28;20040;-92
2023/03/25 01:42:04;;;;;;;9.27;1.85;;;9.70;99.90;;;;;;5073160;28;20840;-91
2023/03/25 01:44:30;;;;;;;9.30;2.13;;;9.70;99.90;;;;;;5080984;28;20036;-91
2023/03/25 01:47:00;;;;;;;13.00;3.45;;;9.70;99.90;;;;;;5090404;28;20052;-91
2023/03/25 01:49:43;;;;;;;10.15;2.17;;;9.70;99.90;;;;;;5072725;28;20028;-91
2023/03/25 01:52:15;;;;;;;7.93;2.03;;;9.60;99.90;;;;;;5073524;28;20401;-91
2023/03/25 01:54:41;;;;;;;8.70;1.90;;;9.60;99.90;;;;;;5073062;28;20036;-91
2023/03/25 01:57:09;;;;;;;7.15;1.63;;;9.50;99.90;;;;;;5073017;28;20123;-90
2023/03/25 01:59:36;;;;;;;7.05;1.25;;;9.50;99.90;;;;;;5073045;28;20044;-91
2023/03/25 02:02:05;;;;;;;11.52;2.17;;;9.50;99.90;;;;;;5072200;28;20047;-91
2023/03/25 02:04:57;;;;;;;9.02;2.00;;;9.50;99.90;;;;;;5073072;28;20114;-91
2023/03/25 02:07:29;;;;;;;7.23;1.47;;;9.50;99.90;;;;;;5073144;28;20092;-91
2023/03/25 02:10:03;;;;;;;10.02;2.15;;;9.40;99.90;;;;;;5069554;28;20040;-91
2023/03/25 02:12:28;;;;;;;9.07;1.70;;;9.40;99.90;;;;;;5077586;28;20036;-92
2023/03/25 02:14:56;;;;;;;8.10;1.58;;;9.40;99.90;;;;;;5076754;28;20089;-92
2023/03/25 02:17:28;;;;;;;7.53;1.58;;;9.30;99.90;;;;;;5077079;28;20032;-92
2023/03/25 02:20:12;;;;;;;7.20;1.48;;;9.20;99.90;;;;;;5076504;28;20070;-92
2023/03/25 02:22:57;;;;;;;8.00;2.05;;;9.10;99.90;;;;;;5077270;28;20389;-92
2023/03/25 02:25:23;;;;;;;13.80;3.03;;;9.00;99.90;;;;;;5077301;28;20050;-92
2023/03/25 02:28:16;;;;;;;13.18;1.90;;;9.00;99.90;;;;;;5077755;28;20056;-92
2023/03/25 02:31:09;;;;;;;11.50;2.33;;;9.00;99.90;;;;;;5077248;28;20055;-92
2023/03/25 02:33:57;;;;;;;9.38;1.85;;;8.90;99.90;;;;;;5077943;28;20117;-92
2023/03/25 02:36:45;;;;;;;14.38;2.47;;;8.90;99.90;;;;;;5076301;28;20056;-91
2023/03/25 02:39:29;;;;;;;11.48;2.83;;;8.90;99.90;;;;;;5093980;28;20047;-91
2023/03/25 02:42:27;;;;;;;10.77;2.00;;;8.90;99.90;;;;;;5093238;28;20035;-92
2023/03/25 02:45:01;;;;;;;10.27;2.60;;;8.90;99.90;;;;;;5077201;28;20044;-91
2023/03/25 02:47:32;;;;;;;11.77;2.03;;;8.90;99.90;;;;;;5093259;28;20089;-92
2023/03/25 02:50:10;;;;;;;10.85;2.10;;;8.90;99.90;;;;;;5094456;28;20040;-91
2023/03/25 02:52:46;;;;;;;14.10;2.38;;;8.90;99.90;;;;;;5076677;28;20079;-92
2023/03/25 02:55:15;;;;;;;10.50;2.97;;;8.90;99.90;;;;;;5076531;28;20044;-91
2023/03/25 02:57:44;;;;;;;8.77;2.28;;;8.90;99.90;;;;;;5075368;28;20063;-91
2023/03/25 03:00:15;;;;;;;10.18;2.78;;;8.90;99.90;;;;;;5092816;28;20047;-92
2023/03/25 03:02:52;;;;;;;12.35;2.47;;;8.90;99.90;;;;;;5075377;28;20405;-91
2023/03/25 03:05:39;;;;;;;12.20;2.60;;;8.90;99.90;;;;;;5092761;28;20040;-92
2023/03/25 03:08:26;;;;;;;13.68;2.03;;;8.80;99.90;;;;;;5092480;28;20044;-91
2023/03/25 03:11:00;;;;;;;10.60;2.28;;;8.80;99.90;;;;;;5076397;28;20040;-91
2023/03/25 03:13:57;;;;;;;11.75;2.35;;;8.80;99.90;;;;;;5093027;28;20040;-91
2023/03/25 03:16:30;;;;;;;9.88;2.05;;;8.80;99.90;;;;;;5029243;28;20108;-91
2023/03/25 03:19:06;;;;;;;;;;;8.90;99.90;;;;;;5075310;28;20044;-92
2023/03/25 03:21:40;;;;;;;12.40;2.25;;;8.90;99.90;;;;;;5092443;28;19977;-91
2023/03/25 03:24:08;;;;;;;6.93;1.67;;;8.90;99.90;;;;;;5092757;28;20051;-91
2023/03/25 03:27:03;;;;;;;13.48;3.20;;;8.90;99.90;;;;;;5092680;28;20044;-91
2023/03/25 03:29:35;;;;;;;8.05;1.70;;;9.00;99.90;;;;;;5076339;28;20059;-90
2023/03/25 03:32:10;;;;;;;11.35;3.15;;;9.00;99.90;;;;;;5075734;28;20069;-91
2023/03/25 03:34:43;;;;;;;10.18;2.15;;;9.00;99.90;;;;;;5076068;28;20044;-92
2023/03/25 03:37:14;;;;;;;13.95;2.00;;;9.00;99.90;;;;;;5075396;28;20120;-91
2023/03/25 03:39:41;;;;;;;10.60;1.92;;;9.00;99.90;;;;;;5075480;28;20122;-91
2023/03/25 03:42:15;;;;;;;10.25;2.03;;;9.00;99.90;;;;;;5076003;28;20032;-91
2023/03/25 03:44:45;;;;;;;11.90;2.60;;;9.00;99.90;;;;;;5074983;28;20058;-91
2023/03/25 03:47:17;;;;;;;11.10;1.77;;;9.00;99.90;;;;;;5076305;28;20039;-92
2023/03/25 03:49:55;;;;;;;11.45;2.05;;;9.00;99.90;;;;;;5075844;28;20090;-92
2023/03/25 03:52:32;;;;;;;11.48;2.25;;;9.00;99.90;;;;;;5075675;28;20040;-91
2023/03/25 03:55:03;;;;;;;7.78;2.42;;;8.90;99.90;;;;;;5075876;28;20047;-91
2023/03/25 03:57:47;;;;;;;9.55;2.53;;;8.90;99.90;;;;;;5092054;28;20040;-93
2023/03/25 04:00:22;;;;;;;11.68;2.15;;;8.90;99.90;;;;;;5075607;28;20046;-91
2023/03/25 04:03:05;;;;;;;6.97;1.70;;;9.00;99.90;;;;;;5075057;28;20036;-92
2023/03/25 04:05:33;;;;;;;7.65;2.10;;;8.90;99.90;;;;;;5092006;28;20066;-92
2023/03/25 04:08:10;;;;;;;16.23;3.08;;;8.90;99.90;;;;;;5092084;28;20394;-91
2023/03/25 04:10:51;;;;;;;16.30;2.20;;;8.90;99.90;;;;;;5075749;28;20075;-91
2023/03/25 04:13:19;;;;;;;10.07;1.98;;;8.90;99.90;;;;;;5091850;28;20066;-90
2023/03/25 04:15:45;;;;;;;21.15;1.95;;;8.90;99.90;;;;;;5075690;28;20040;-91
2023/03/25 04:18:11;;;;;;;12.32;2.10;;;8.90;99.90;;;;;;5074854;28;20042;-91
2023/03/25 04:20:43;;;;;;;8.43;1.90;;;8.80;99.90;;;;;;5074088;28;20032;-92
2023/03/25 04:23:14;;;;;;;6.57;2.05;;;8.80;99.90;;;;;;5074719;28;20036;-91
2023/03/25 04:25:46;;;;;;;10.50;2.30;;;8.80;99.90;;;;;;5074456;28;20040;-90
2023/03/25 04:28:12;;;;;;;9.35;2.13;;;8.80;99.90;;;;;;5075316;28;20040;-90
2023/03/25 04:30:39;;;;;;;9.35;2.22;;;8.80;99.90;;;;;;5074090;28;20040;-91
2023/03/25 04:33:06;;;;;;;9.07;2.42;;;8.80;99.90;;;;;;5075035;28;20040;-91
2023/03/25 04:35:32;;;;;;;17.15;2.45;;;8.90;99.90;;;;;;5091430;28;20040;-91
2023/03/25 04:37:58;;;;;;;4.85;1.65;;;8.80;99.90;;;;;;5091488;28;20035;-90
2023/03/25 04:40:24;;;;;;;8.88;2.45;;;8.80;99.90;;;;;;5074682;28;20517;-91
2023/03/25 04:42:52;;;;;;;12.20;2.35;;;8.80;99.90;;;;;;5090658;28;20089;-90
2023/03/25 04:45:19;;;;;;;9.90;2.40;;;8.80;99.90;;;;;;5074717;28;20559;-91
2023/03/25 04:47:47;;;;;;;14.00;2.78;;;8.80;99.90;;;;;;5074612;28;20135;-90
2023/03/25 04:50:20;;;;;;;11.18;2.65;;;8.80;99.90;;;;;;5074821;28;20044;-90
2023/03/25 04:52:47;;;;;;;17.08;2.80;;;8.80;99.90;;;;;;5093087;28;20052;-90
2023/03/25 04:55:18;;;;;;;13.30;2.80;;;8.80;99.90;;;;;;5074678;28;20386;-90
2023/03/25 04:57:49;;;;;;;13.13;2.97;;;8.80;99.90;;;;;;5090662;28;20066;-91
2023/03/25 05:00:19;;;;;;;10.65;2.65;;;8.80;99.90;;;;;;5073477;28;20040;-91
2023/03/25 05:02:46;;;;;;;13.00;2.60;;;8.70;99.90;;;;;;5090147;28;20069;-91
2023/03/25 05:05:17;;;;;;;8.10;2.45;;;8.70;99.90;;;;;;5073844;28;20553;-90
2023/03/25 05:07:45;;;;;;;8.32;2.55;;;8.70;99.90;;;;;;5072449;28;20123;-91
2023/03/25 05:10:11;;;;;;;8.35;2.97;;;8.70;99.90;;;;;;5074451;28;20047;-91
2023/03/25 05:12:37;;;;;;;10.07;2.75;;;8.70;99.90;;;;;;5074161;28;20044;-91
2023/03/25 05:15:04;;;;;;;10.25;3.15;;;8.70;99.90;;;;;;5073306;28;20044;-91
2023/03/25 05:17:29;;;;;;;9.73;2.78;;;8.70;99.90;;;;;;5074187;28;20405;-91
2023/03/25 05:19:55;;;;;;;14.40;3.05;;;8.70;99.90;;;;;;5089712;28;20039;-92
2023/03/25 05:22:22;;;;;;;10.30;2.72;;;8.70;99.90;;;;;;5074426;28;20067;-91
2023/03/25 05:24:47;;;;;;;9.75;3.38;;;8.70;99.90;;;;;;5073824;28;20035;-91
2023/03/25 05:27:13;;;;;;;10.98;3.13;;;8.70;99.90;;;;;;5074542;28;20159;-90
2023/03/25 05:29:39;;;;;;;11.55;3.67;;;8.70;99.90;;;;;;5074103;28;20043;-91
2023/03/25 05:32:05;;;;;;;11.10;3.95;;;8.70;99.90;;;;;;5073980;28;20044;-90
2023/03/25 05:34:30;;;;;;;12.50;3.92;;;8.70;99.90;;;;;;5074228;28;20067;-90
2023/03/25 05:36:56;;;;;;;9.50;3.42;;;8.70;99.90;;;;;;5074199;28;20635;-91
2023/03/25 05:39:23;;;;;;;11.65;3.40;;;8.70;99.90;;;;;;5089790;28;20044;-91
2023/03/25 05:41:49;;;;;;;14.73;4.38;;;8.70;99.90;;;;;;5090169;28;20032;-91
2023/03/25 05:44:18;;;;;;;11.85;3.97;;;8.70;99.90;;;;;;5089500;28;20097;-91
2023/03/25 05:46:43;;;;;;;12.70;4.05;;;8.70;99.90;;;;;;5074115;28;20100;-90
2023/03/25 05:49:09;;;;;;;14.73;4.40;;;8.70;99.90;;;;;;5073417;28;20047;-91
2023/03/25 05:51:37;;;;;;;8.27;2.80;;;8.70;99.90;;;;;;5073642;28;20052;-91
2023/03/25 05:54:09;;;;;;;13.77;3.28;;;8.80;99.90;;;;;;5073515;28;20043;-90
2023/03/25 05:56:35;;;;;;;8.00;2.67;;;8.80;99.90;;;;;;5073609;28;20062;-90
2023/03/25 05:59:02;;;;;;;10.52;3.00;;;8.70;99.90;;;;;;5073783;28;20058;-91
2023/03/25 06:01:28;;;;;;;8.73;2.35;;;8.80;99.90;;;;;;5073081;28;20066;-91
2023/03/25 06:03:54;;;;;;;8.45;2.65;;;8.80;99.90;;;;;;5089877;28;20553;-91
2023/03/25 06:06:20;;;;;;;9.45;2.85;;;8.80;99.90;;;;;;5072532;28;20040;-90
2023/03/25 06:08:50;;;;;;;14.10;2.67;;;8.80;99.90;;;;;;5073333;28;20044;-91
2023/03/25 06:11:18;;;;;;;6.72;1.83;;;8.80;99.90;;;;;;5072675;28;20127;-91
2023/03/25 06:13:48;;;;;;;9.35;1.95;;;8.90;99.90;;;;;;5073097;28;20071;-91
2023/03/25 06:16:19;;;;;;;9.95;2.17;;;8.80;99.90;;;;;;5073169;28;20121;-91
2023/03/25 06:18:54;;;;;;;6.95;1.60;;;8.80;99.90;;;;;;5073006;28;20402;-90
2023/03/25 06:21:21;;;;;;;7.60;2.17;;;8.80;99.90;;;;;;5074018;28;20596;-91
2023/03/25 06:23:48;;;;;;;8.57;1.90;;;8.70;99.90;;;;;;5072762;28;20036;-91
2023/03/25 06:26:17;;;;;;;7.93;1.55;;;8.70;99.90;;;;;;5073592;28;20482;-90
2023/03/25 06:28:43;;;;;;;8.52;1.70;;;8.60;99.90;;;;;;5089653;28;20040;-90
2023/03/25 06:31:13;;;;;;;4.60;1.85;;;8.60;99.90;;;;;;5072832;28;20477;-91
2023/03/25 06:33:38;;;;;;;7.93;1.67;;;8.60;99.90;;;;;;5073321;28;20047;-90
2023/03/25 06:36:05;;;;;;;6.05;1.60;;;8.50;99.90;;;;;;5089447;28;20038;-90
2023/03/25 06:38:32;;;;;;;7.78;1.98;;;8.50;99.90;;;;;;5107153;28;20040;-91
2023/03/25 06:40:58;;;;;;;3.80;1.02;;;8.50;99.90;;;;;;5072724;28;20075;-91
2023/03/25 06:43:24;;;;;;;6.60;1.52;;;8.50;99.90;;;;;;5073029;28;20082;-90
2023/03/25 06:45:50;;;;;;;5.93;2.15;;;8.50;99.90;;;;;;5072911;28;20089;-90
2023/03/25 06:48:16;;;;;;;9.15;2.15;;;8.50;99.90;;;;;;5072123;28;20043;-90
2023/03/25 06:50:41;;;;;;;5.60;1.50;;;8.50;99.90;;;;;;5073013;28;20040;-91
2023/03/25 06:53:07;;;;;;;8.07;1.98;;;8.50;99.90;;;;;;5089546;28;20130;-90
2023/03/25 06:55:32;;;;;;;5.80;1.35;;;8.50;99.90;;;;;;5074749;28;20036;-91
2023/03/25 06:57:58;;;;;;;6.57;1.70;;;8.50;99.90;;;;;;5076352;28;20043;-91
2023/03/25 07:00:25;;;;;;;9.13;2.13;;;8.60;99.90;;;;;;5093087;28;20036;-91
2023/03/25 07:02:51;;;;;;;11.95;2.03;;;8.60;99.90;;;;;;5077014;28;20032;-91
2023/03/25 07:05:17;;;;;;;6.82;1.55;;;8.70;99.90;;;;;;5075753;28;20047;-91
2023/03/25 07:07:43;;;;;;;8.98;1.63;;;8.70;99.90;;;;;;5076185;28;20036;-91
2023/03/25 07:10:11;;;;;;;7.10;1.60;;;8.80;99.90;;;;;;5076716;28;20121;-91
2023/03/25 07:12:37;;;;;;;10.05;2.08;;;8.80;99.90;;;;;;5076198;28;20039;-91
2023/03/25 07:15:03;;;;;;;9.27;1.65;;;8.90;99.90;;;;;;5076012;28;20036;-91
2023/03/25 07:17:29;;;;;;;10.88;2.17;;;8.90;99.90;;;;;;5092995;28;20493;-92
2023/03/25 07:19:54;;;;;;;10.18;2.25;;;9.00;99.90;;;;;;5092656;28;20071;-91
2023/03/25 07:22:20;;;;;;;9.27;1.85;;;9.10;99.90;;;;;;5093273;28;20067;-92
2023/03/25 07:24:46;;;;;;;5.88;1.63;;;9.10;99.90;;;;;;5075954;28;20036;-91
2023/03/25 07:27:13;;;;;;;11.65;1.98;;;9.10;99.90;;;;;;5076604;28;20036;-92
2023/03/25 07:29:39;;;;;;;7.75;2.10;;;9.10;99.90;;;;;;5075001;28;20040;-92
2023/03/25 07:32:05;;;;;;;8.25;2.58;;;9.10;99.90;;;;;;5092871;28;20032;-92
2023/03/25 07:34:31;;;;;;;10.50;2.22;;;9.10;99.90;;;;;;5076532;28;20036;-92
2023/03/25 07:36:56;;;;;;;8.43;2.20;;;9.10;99.90;;;;;;5074709;28;20568;-92
2023/03/25 07:39:24;;;;;;;7.93;1.88;;;9.10;99.90;;;;;;5074315;28;20040;-92
2023/03/25 07:41:50;;;;;;;11.15;2.35;;;9.10;99.90;;;;;;5091970;28;20039;-91
2023/03/25 07:44:19;;;;;;;8.13;1.88;;;9.10;99.90;;;;;;5076117;28;20036;-92
2023/03/25 07:46:45;;;;;;;11.27;2.78;;;9.10;99.90;;;;;;5076053;28;20044;-91
2023/03/25 07:49:11;;;;;;;9.80;2.10;;;9.10;99.90;;;;;;5091573;28;20124;-92
2023/03/25 07:51:37;;;;;;;12.70;2.05;;;9.10;99.90;;;;;;5076020;28;20165;-92
2023/03/25 07:54:02;;;;;;;16.55;2.75;;;9.10;99.90;;;;;;5093209;28;20040;-92
2023/03/25 07:56:28;;;;;;;14.82;2.42;;;9.10;99.90;;;;;;5092332;28;20040;-91
2023/03/25 07:58:54;;;;;;;11.98;2.38;;;9.10;99.90;;;;;;5082264;28;20036;-92
2023/03/25 08:01:19;;;;;;;9.13;1.83;;;9.10;99.90;;;;;;5066559;28;20434;-92
2023/03/25 08:03:45;;;;;;;7.55;1.95;;;9.20;99.90;;;;;;5097718;28;20042;-92
2023/03/25 08:06:11;;;;;;;12.32;2.55;;;9.20;99.90;;;;;;5092221;28;20456;-92
2023/03/25 08:08:36;;;;;;;17.55;2.75;;;9.20;99.90;;;;;;5093436;28;20067;-91
2023/03/25 08:11:02;;;;;;;5.68;1.45;;;9.30;99.90;;;;;;5092429;28;20546;-92
2023/03/25 08:13:29;;;;;;;13.30;2.78;;;9.30;99.90;;;;;;5075242;28;20036;-92
2023/03/25 08:15:54;;;;;;;8.00;1.73;;;9.40;99.90;;;;;;5075227;28;20032;-92
2023/03/25 08:18:20;;;;;;;10.65;3.08;;;9.40;99.90;;;;;;5074853;28;20489;-92
2023/03/25 08:20:48;;;;;;;8.57;1.80;;;9.40;99.90;;;;;;5075117;28;20043;-93
2023/03/25 08:23:18;;;;;;;14.02;2.65;;;9.40;99.90;;;;;;5075463;28;20449;-93
2023/03/25 08:25:49;;;;;;;9.68;1.55;;;9.40;99.90;;;;;;5074434;28;20036;-92
2023/03/25 08:28:20;;;;;;;17.05;3.42;;;9.50;99.90;;;;;;5091706;28;20035;-91
2023/03/25 08:30:48;;;;;;;7.05;1.48;;;9.50;99.90;;;;;;5074834;28;20657;-92
2023/03/25 08:33:15;;;;;;;7.20;1.73;;;9.60;99.90;;;;;;5091968;28;20415;-92
2023/03/25 08:35:41;;;;;;;6.97;1.63;;;9.60;99.90;;;;;;5075118;28;20126;-91
2023/03/25 08:38:07;;;;;;;11.32;2.38;;;9.60;99.90;;;;;;5074021;28;20062;-91
2023/03/25 08:40:35;;;;;;;12.60;2.47;;;9.50;99.90;;;;;;5091709;28;20047;-92
2023/03/25 08:43:03;;;;;;;8.77;2.35;;;9.50;99.90;;;;;;5091470;28;20051;-91
2023/03/25 08:45:31;;;;;;;9.55;1.85;;;9.50;99.90;;;;;;5074464;28;20040;-90
2023/03/25 08:47:57;;;;;;;11.15;2.40;;;9.40;99.90;;;;;;5074569;28;20079;-91
2023/03/25 08:50:23;;;;;;;10.35;2.05;;;9.40;99.90;;;;;;5074308;28;20035;-91
2023/03/25 08:52:52;;;;;;;12.32;2.17;;;9.30;99.90;;;;;;5074590;28;20531;-91
2023/03/25 08:55:18;;;;;;;8.63;2.88;;;9.40;99.90;;;;;;5091248;28;20067;-91
2023/03/25 08:57:43;;;;;;;12.45;2.33;;;9.50;99.90;;;;;;5090073;28;20595;-91
2023/03/25 09:00:13;;;;;;;15.02;2.30;;;9.50;99.90;;;;;;5074068;28;20044;-92
2023/03/25 09:02:40;;;;;;;11.60;1.75;;;9.50;99.90;;;;;;5090667;28;20067;-91
2023/03/25 09:05:08;;;;;;;13.95;3.03;;;9.50;99.90;;;;;;5074368;28;20043;-90
2023/03/25 09:07:34;;;;;;;13.43;2.40;;;9.60;99.90;;;;;;5074576;28;20122;-91
2023/03/25 09:10:00;;;;;;;11.77;2.47;;;9.70;99.90;;;;;;5072077;28;20036;-91
2023/03/25 09:12:26;;;;;;;10.07;1.60;;;9.80;99.90;;;;;;5089557;28;20507;-92
2023/03/25 09:14:52;;;;;;;11.15;3.13;;;9.90;99.90;;;;;;5072879;28;20036;-90
2023/03/25 09:17:17;;;;;;;8.48;2.15;;;9.80;99.90;;;;;;5072495;28;20501;-92
2023/03/25 09:19:43;;;;;;;9.52;2.17;;;9.80;99.90;;;;;;5073708;28;20489;-92
2023/03/25 09:22:08;;;;;;;10.23;2.00;;;9.80;99.90;;;;;;5074185;28;20040;-92
2023/03/25 09:24:34;;;;;;;13.63;2.25;;;9.80;99.90;;;;;;5074121;28;20104;-91
2023/03/25 09:27:01;;;;;;;13.80;2.70;;;9.70;99.90;;;;;;5074429;28;20396;-92
2023/03/25 09:29:28;;;;;;;10.50;1.95;;;9.60;99.90;;;;;;5073801;28;20040;-91
2023/03/25 09:31:57;;;;;;;12.10;1.95;;;9.50;99.90;;;;;;5074144;28;20093;-91
2023/03/25 09:34:22;;;;;;;13.07;2.47;;;9.60;99.90;;;;;;5073657;28;20040;-91
2023/03/25 09:36:48;;;;;;;12.05;2.33;;;9.80;99.90;;;;;;5073119;28;20047;-92
2023/03/25 09:39:14;;;;;;;15.18;2.40;;;9.90;99.90;;;;;;5072749;28;20043;-91
2023/03/25 09:42:02;;;;;;;10.95;2.08;;;10.10;99.90;;;;;;5091141;28;20036;-92
2023/03/25 09:44:58;;;;;;;9.50;2.03;;;10.30;99.90;;;;;;5090336;28;20039;-90
2023/03/25 09:47:25;;;;;;;11.30;2.45;;;10.40;99.90;;;;;;5065728;28;20044;-92
2023/03/25 09:49:56;;;;;;;15.50;2.53;;;10.50;99.90;;;;;;5079965;28;20044;-91
2023/03/25 09:52:42;;;;;;;8.48;1.80;;;10.50;99.90;;;;;;5098344;28;20055;-92
2023/03/25 09:55:16;;;;;;;14.07;2.40;;;10.40;99.90;;;;;;5090382;28;20051;-91
2023/03/25 09:57:53;;;;;;;12.13;2.35;;;10.20;99.90;;;;;;5073802;28;20058;-92
2023/03/25 10:00:23;;;;;;;5.22;1.40;;;10.20;99.90;;;;;;5063156;28;20040;-91
2023/03/25 10:02:52;;;;;;;14.88;2.28;;;10.10;99.90;;;;;;5094829;28;20061;-91
2023/03/25 10:05:36;;;;;;;13.35;2.08;;;10.00;99.90;;;;;;5063674;28;20036;-90
2023/03/25 10:08:23;;;;;;;10.00;1.90;;;10.10;99.90;;;;;;5090438;28;20387;-92
2023/03/25 10:11:03;;;;;;;10.90;1.88;;;10.20;99.90;;;;;;5090005;28;20050;-92
2023/03/25 10:13:40;;;;;;;9.38;1.92;;;10.30;99.90;;;;;;5090430;28;20046;-92
2023/03/25 10:16:34;;;;;;;9.27;2.42;;;10.30;99.90;;;;;;5090409;28;20461;-93
2023/03/25 10:19:06;;;;;;;11.02;1.67;;;10.30;99.90;;;;;;5072682;28;20118;-92
2023/03/25 10:21:40;;;;;;;12.80;2.90;;;10.20;99.90;;;;;;5090233;28;20408;-93
2023/03/25 10:24:12;;;;;;;13.93;2.13;;;10.10;99.90;;;;;;5072171;28;20070;-91
2023/03/25 10:27:01;;;;;;;12.18;1.83;;;10.00;99.90;;;;;;5073100;28;20040;-91
2023/03/25 10:29:30;;;;;;;9.30;1.90;;;10.00;99.90;;;;;;5073822;28;20123;-91
2023/03/25 10:32:02;;;;;;;11.05;2.28;;;10.00;99.90;;;;;;5094181;28;20055;-91
2023/03/25 10:34:41;;;;;;;21.27;3.35;;;10.00;99.90;;;;;;5093856;28;20056;-91
2023/03/25 10:37:12;;;;;;;12.38;1.88;;;10.20;99.90;;;;;;5094384;28;20394;-91
2023/03/25 10:39:44;;;;;;;13.90;3.53;;;10.20;99.90;;;;;;5077245;28;20047;-91
2023/03/25 10:42:25;;;;;;;10.50;1.88;;;10.30;99.90;;;;;;5094006;28;20129;-91
2023/03/25 10:44:52;;;;;;;12.73;1.95;;;10.30;99.90;;;;;;5073691;28;20516;-91
2023/03/25 10:47:22;;;;;;;13.43;2.63;;;10.30;99.90;;;;;;5064150;28;20044;-90
2023/03/25 10:49:51;;;;;;;11.88;2.42;;;10.20;99.90;;;;;;5094007;28;20119;-90
2023/03/25 10:52:22;;;;;;;12.07;2.17;;;10.20;99.90;;;;;;5093651;28;20046;-91
2023/03/25 10:54:52;;;;;;;10.40;1.40;;;10.10;99.90;;;;;;5075926;28;20123;-92
2023/03/25 10:57:27;;;;;;;13.85;2.38;;;10.20;99.90;;;;;;5094063;28;20393;-91
2023/03/25 11:00:18;;;;;;;14.85;2.38;;;10.30;99.90;;;;;;5093571;28;20079;-91
2023/03/25 11:02:45;;;;;;;12.98;2.17;;;10.50;99.90;;;;;;5071083;28;20085;-92
2023/03/25 11:05:16;;;;;;;11.98;2.30;;;10.80;99.90;;;;;;5093756;28;20485;-92
2023/03/25 11:07:49;;;;;;;9.90;1.85;;;10.90;99.90;;;;;;5093029;28;20139;-92
2023/03/25 11:10:25;;;;;;;8.60;1.60;;;11.00;99.90;;;;;;5076558;28;20040;-92
2023/03/25 11:12:53;;;;;;;8.25;2.05;;;11.20;99.90;;;;;;5076550;28;20535;-92
2023/03/25 11:15:32;;;;;;;10.85;1.65;;;11.10;99.90;;;;;;5094043;28;20036;-92
2023/03/25 11:18:21;;;;;;;15.63;2.63;;;10.80;99.90;;;;;;5076506;28;20032;-93
2023/03/25 11:20:53;;;;;;;4.60;1.33;;;10.70;99.90;;;;;;5076271;28;20032;-92
2023/03/25 11:23:23;;;;;;;17.50;2.47;;;10.50;99.90;;;;;;5094145;28;20134;-92
2023/03/25 11:25:49;;;;;;;11.90;2.75;;;10.40;99.90;;;;;;5076461;28;20048;-91
2023/03/25 11:28:26;;;;;;;11.23;2.03;;;10.40;99.90;;;;;;5076087;28;20036;-91
2023/03/25 11:31:21;;;;;;;12.75;2.15;;;10.40;99.90;;;;;;5093589;28;20390;-91
2023/03/25 11:34:09;;;;;;;12.90;2.03;;;10.40;99.90;;;;;;5076632;28;20044;-91
2023/03/25 11:36:38;;;;;;;12.77;2.33;;;10.50;99.90;;;;;;5092885;28;20051;-92
2023/03/25 11:39:21;;;;;;;11.85;2.50;;;10.60;99.90;;;;;;5076470;28;20048;-91
2023/03/25 11:41:47;;;;;;;10.65;1.80;;;10.70;99.90;;;;;;5075980;28;20127;-92
2023/03/25 11:44:24;;;;;;;14.02;1.35;;;10.70;99.90;;;;;;5075768;28;20133;-91
2023/03/25 11:46:53;;;;;;;13.57;2.33;;;10.70;99.90;;;;;;5075999;28;20066;-91
2023/03/25 11:49:21;;;;;;;17.58;2.50;;;10.80;99.90;;;;;;5075525;28;20507;-92
2023/03/25 11:51:50;;;;;;;14.93;2.50;;;10.80;99.90;;;;;;5092697;28;20075;-92
2023/03/25 11:54:17;;;;;;;14.68;2.83;;;10.90;99.90;;;;;;5092660;28;20054;-91
2023/03/25 11:56:47;;;;;;;12.90;1.98;;;10.90;99.90;;;;;;5074901;28;20123;-91
2023/03/25 11:59:26;;;;;;;19.50;3.15;;;10.90;99.90;;;;;;5075301;28;20028;-92
2023/03/25 12:02:19;;;;;;;12.70;2.38;;;10.90;99.90;;;;;;5092486;28;20091;-91
2023/03/25 12:05:11;;;;;;;8.10;1.88;;;10.90;99.90;;;;;;5075649;28;20039;-91
2023/03/25 12:07:46;;;;;;;11.15;2.35;;;11.00;99.90;;;;;;5092240;28;20039;-91
2023/03/25 12:10:19;;;;;;;15.77;3.05;;;11.00;99.90;;;;;;5091902;28;20118;-91
2023/03/25 12:12:55;;;;;;;11.35;1.92;;;11.00;99.90;;;;;;5092411;28;20044;-92
2023/03/25 12:15:30;;;;;;;10.38;1.90;;;11.10;99.90;;;;;;5092077;28;20048;-91
2023/03/25 12:17:58;;;;;;;12.82;1.80;;;11.10;99.90;;;;;;5091731;28;20444;-91
2023/03/25 12:20:29;;;;;;;10.07;1.83;;;11.20;99.90;;;;;;5075584;28;20032;-91
2023/03/25 12:23:17;;;;;;;12.05;2.58;;;11.40;99.90;;;;;;5075088;28;20173;-92
2023/03/25 12:25:55;;;;;;;15.77;3.80;;;11.40;99.90;;;;;;5073559;28;20071;-91
2023/03/25 12:28:59;;;;;;;9.82;1.70;;;11.40;99.90;;;;;;5091243;28;20044;-90
2023/03/25 12:31:28;;;;;;;9.77;1.80;;;11.40;99.90;;;;;;5062691;28;20079;-91
2023/03/25 12:34:13;;;;;;;8.63;1.98;;;11.40;99.90;;;;;;5074832;28;20542;-91
2023/03/25 12:37:33;;;;;;;13.20;2.25;;;11.40;99.90;;;;;;5090837;28;20044;-91
2023/03/25 12:40:06;;;;;;;14.60;2.42;;;11.50;99.90;;;;;;4993875;28;20050;-90
2023/03/25 12:42:38;;;;;;;;;;;11.50;99.90;;;;;;4988400;28;20503;-90
2023/03/25 12:45:28;;;;;;;7.25;1.52;;;11.40;99.90;;;;;;4978061;28;20322;-91
2023/03/25 12:48:18;;;;;;;11.27;1.65;;;11.40;99.90;;;;;;4994265;28;20515;-90
2023/03/25 12:50:50;;;;;;;8.05;1.77;;;11.40;99.90;;;;;;5014252;28;20045;-90
2023/03/25 12:53:50;;;;;;;15.87;2.53;;;11.50;99.90;;;;;;5002492;28;20057;-91
2023/03/25 12:56:37;;;;;;;11.77;2.47;;;11.50;99.90;;;;;;4985289;28;20822;-91
2023/03/25 12:59:26;;;;;;;9.73;1.95;;;11.50;99.90;;;;;;5014129;28;20451;-90
2023/03/25 13:02:26;;;;;;;14.65;2.53;;;11.50;99.90;;;;;;4993454;28;20068;-91
2023/03/25 13:05:03;;;;;;;12.70;2.05;;;11.50;99.90;;;;;;4996845;28;20526;-91
2023/03/25 13:07:37;;;;;;;9.77;1.80;;;11.40;99.90;;;;;;4996469;28;20038;-91
2023/03/25 13:10:15;;;;;;;10.20;1.63;;;11.40;99.90;;;;;;4977301;28;20030;-91